Time;durP1;ratioP1;P1;durP2;ratioP2;P2;SDS_P1;SDS_P2;PMS_P1;PMS_P2;Temp;Humidity;BMP_temperature;BMP_pressure;BME280_temperature;BME280_humidity;BME280_pressure;Samples;Min_cycle;Max_cycle;Signal;HPM_P1;HPM_P2
2022/08/13 00:02:09;;;;;;;6.80;6.37;;;;;;;24.87;46.90;94821.69;6148604;28;103153;-56
2022/08/13 00:05:23;;;;;;;7.33;6.83;;;;;;;25.06;46.63;94813.94;6159866;28;103367;-56
2022/08/13 00:08:48;;;;;;;8.97;7.30;;;;;;;25.22;46.07;94812.22;6159156;28;104445;-56
2022/08/13 00:15:27;;;;;;;6.60;6.10;;;;;;;25.17;46.49;94811.63;6158735;28;103009;-58
2022/08/13 00:18:32;;;;;;;6.27;5.87;;;;;;;25.09;46.56;94808.72;6158869;28;103065;-56
2022/08/13 00:21:35;;;;;;;6.23;5.73;;;;;;;24.89;46.88;94806.88;6158736;28;103984;-55
2022/08/13 00:25:00;;;;;;;7.23;6.53;;;;;;;24.72;47.76;94799.78;6148569;28;103053;-57
2022/08/13 00:28:14;;;;;;;6.67;6.27;;;;;;;24.62;47.95;94805.50;6158148;28;104063;-57
2022/08/13 00:31:18;;;;;;;7.43;6.90;;;;;;;24.57;48.05;94805.69;6159199;28;103984;-57
2022/08/13 00:34:27;;;;;;;7.47;6.97;;;;;;;24.44;48.25;94802.16;6148055;28;104111;-57
2022/08/13 00:37:30;;;;;;;6.70;6.20;;;;;;;24.42;48.54;94799.03;6157688;28;103100;-56
2022/08/13 00:40:58;;;;;;;7.40;6.83;;;;;;;24.49;48.27;94798.50;6147804;28;102716;-56
2022/08/13 00:44:01;;;;;;;7.47;6.90;;;;;;;24.54;48.46;94800.22;6162306;28;103082;-56
2022/08/13 00:50:28;;;;;;;7.80;7.30;;;;;;;24.81;48.16;94790.88;6161672;28;103971;-56
2022/08/13 00:53:31;;;;;;;7.57;7.10;;;;;;;24.97;47.56;94789.94;6162763;28;103178;-56
2022/08/13 00:56:48;;;;;;;7.70;7.17;;;;;;;24.86;47.87;94791.44;6153014;28;103080;-57
2022/08/13 00:59:53;;;;;;;8.27;7.47;;;;;;;24.83;48.23;94784.06;6160914;28;103342;-57
2022/08/13 01:02:58;;;;;;;8.03;7.53;;;;;;;24.88;48.14;94793.81;6162590;28;103327;-57
2022/08/13 01:06:12;;;;;;;7.50;6.90;;;;;;;24.87;48.18;94790.34;6161236;28;103352;-56
2022/08/13 01:09:21;;;;;;;7.80;7.10;;;;;;;24.95;47.68;94786.03;6152111;28;103089;-57
2022/08/13 01:12:50;;;;;;;9.93;7.50;;;;;;;24.87;48.32;94778.88;6162255;28;104828;-56
2022/08/13 01:15:53;;;;;;;8.60;7.90;;;;;;;24.84;48.12;94780.28;6162425;28;104099;-56
2022/08/13 01:18:58;;;;;;;7.90;7.10;;;;;;;24.88;48.16;94778.53;6156595;28;102722;-57
2022/08/13 01:22:05;;;;;;;7.70;7.20;;;;;;;24.92;48.08;94784.78;6155773;28;103123;-57
2022/08/13 01:25:08;;;;;;;7.83;7.20;;;;;;;25.12;47.05;94785.06;6161802;28;103185;-56
2022/08/13 01:28:14;;;;;;;8.40;7.70;;;;;;;25.24;47.11;94777.06;6161284;28;103166;-56
2022/08/13 01:31:19;;;;;;;7.97;7.37;;;;;;;25.33;46.68;94783.88;6151488;28;103323;-57
2022/08/13 01:34:26;;;;;;;7.23;6.63;;;;;;;25.39;46.38;94776.44;6160983;28;102983;-57
2022/08/13 01:37:31;;;;;;;7.03;6.53;;;;;;;24.97;47.59;94784.56;6152448;28;104890;-57
2022/08/13 01:40:36;;;;;;;6.60;6.20;;;;;;;25.18;46.82;94773.78;6161542;28;103989;-56
2022/08/13 01:43:43;;;;;;;6.70;6.17;;;;;;;25.35;46.53;94770.16;6151458;28;103825;-57
2022/08/13 01:50:31;;;;;;;5.90;5.50;;;;;;;25.62;45.43;94769.53;6099148;28;103997;-57
2022/08/13 01:53:37;;;;;;;5.83;5.43;;;;;;;25.75;45.48;94772.22;6152563;28;104049;-58
2022/08/13 01:56:40;;;;;;;6.27;5.87;;;;;;;25.76;45.33;94763.06;6161110;28;104129;-61
2022/08/13 01:59:43;;;;;;;5.73;5.43;;;;;;;25.80;45.31;94766.63;6161459;28;104043;-57
2022/08/13 02:03:09;;;;;;;6.23;5.83;;;;;;;25.68;45.79;94760.13;6161229;28;103214;-57
2022/08/13 02:06:12;;;;;;;6.67;5.97;;;;;;;25.63;45.27;94757.69;6151403;28;103110;-57
2022/08/13 02:09:28;;;;;;;5.80;5.50;;;;;;;25.60;45.67;94757.59;6161409;28;103248;-57
2022/08/13 02:12:52;;;;;;;5.60;5.20;;;;;;;25.47;45.87;94754.13;6161087;28;105499;-58
2022/08/13 02:15:57;;;;;;;6.07;5.63;;;;;;;25.41;45.69;94757.34;6156248;28;103777;-58
2022/08/13 02:19:04;;;;;;;6.77;6.27;;;;;;;25.34;46.19;94761.31;6156378;28;105684;-57
2022/08/13 02:22:27;;;;;;;6.93;6.33;;;;;;;25.20;46.14;94766.22;6160790;28;102721;-57
2022/08/13 02:25:37;;;;;;;6.17;5.77;;;;;;;25.12;46.41;94763.63;6160828;28;102916;-57
2022/08/13 02:28:40;;;;;;;6.50;6.00;;;;;;;25.20;46.56;94754.72;6150717;28;104012;-58
2022/08/13 02:31:44;;;;;;;6.80;6.30;;;;;;;25.27;45.88;94761.09;6160666;28;104295;-57
2022/08/13 02:35:09;;;;;;;5.80;5.40;;;;;;;25.63;45.62;94755.00;6160383;28;102884;-57
2022/08/13 02:38:13;;;;;;;6.10;5.60;;;;;;;25.83;45.27;94755.22;6159386;28;103198;-57
2022/08/13 02:44:54;;;;;;;6.40;6.00;;;;;;;26.04;44.54;94757.78;6160958;28;102964;-56
2022/08/13 02:47:58;;;;;;;5.60;5.30;;;;;;;25.85;44.85;94756.44;6160400;28;103273;-56
2022/08/13 02:51:01;;;;;;;6.40;5.97;;;;;;;25.72;45.22;94751.47;6149761;28;103478;-57
2022/08/13 02:54:06;;;;;;;6.13;5.73;;;;;;;25.68;45.35;94756.69;6160014;28;103775;-56
2022/08/13 02:57:10;;;;;;;6.00;5.60;;;;;;;25.49;45.56;94751.88;6160168;28;103963;-57
2022/08/13 03:00:16;;;;;;;6.23;5.53;;;;;;;25.42;45.55;94751.66;6160006;28;103074;-56
2022/08/13 03:03:20;;;;;;;5.93;5.53;;;;;;;25.37;45.65;94754.53;6147790;28;103214;-56
2022/08/13 03:06:25;;;;;;;6.00;5.50;;;;;;;25.36;45.95;94753.75;6160513;28;104078;-56
2022/08/13 03:09:28;;;;;;;6.00;5.60;;;;;;;25.33;45.94;94759.75;6159752;28;103085;-55
2022/08/13 03:12:34;;;;;;;6.47;6.07;;;;;;;25.03;46.64;94758.38;6154628;28;103229;-56
2022/08/13 03:15:42;;;;;;;6.90;6.50;;;;;;;24.79;46.90;94756.41;6154643;28;103950;-56
2022/08/13 03:18:59;;;;;;;6.47;5.93;;;;;;;25.03;46.42;94759.19;6159415;28;103303;-52
2022/08/13 03:22:06;;;;;;;6.63;6.13;;;;;;;25.23;45.93;94762.09;6160054;28;104136;-51
2022/08/13 03:25:09;;;;;;;7.70;7.00;;;;;;;25.53;45.20;94760.81;6148765;28;104399;-50
2022/08/13 03:28:14;;;;;;;16.03;14.90;;;;;;;25.65;45.10;94760.81;6158675;28;103107;-51
2022/08/13 03:31:18;;;;;;;14.83;13.80;;;;;;;25.80;44.90;94767.41;6159621;28;104002;-51
2022/08/13 03:34:24;;;;;;;14.70;13.57;;;;;;;25.89;44.82;94764.63;6158887;28;104166;-51
2022/08/13 03:37:35;;;;;;;14.70;13.70;;;;;;;25.97;44.87;94769.06;6149887;28;104120;-51
2022/08/13 03:44:02;;;;;;;17.20;15.90;;;;;;;25.84;44.89;94775.56;6159763;28;103275;-51
2022/08/13 03:47:07;;;;;;;14.10;12.90;;;;;;;25.56;45.83;94770.09;6150525;28;104320;-52
2022/08/13 03:50:30;;;;;;;21.63;19.73;;;;;;;25.34;46.71;94776.63;6158710;28;105219;-51
2022/08/13 03:53:36;;;;;;;13.37;12.17;;;;;;;25.23;47.28;94778.19;6158987;28;102913;-52
2022/08/13 03:56:46;;;;;;;13.50;12.50;;;;;;;25.27;47.48;94779.84;6158687;28;103996;-52
2022/08/13 04:00:07;;;;;;;25.07;22.97;;;;;;;25.16;47.90;94783.28;6148733;28;105528;-52
2022/08/13 04:03:19;;;;;;;31.90;29.30;;;;;;;25.08;48.42;94777.69;6158854;28;103298;-51
2022/08/13 04:06:24;;;;;;;23.60;21.67;;;;;;;24.98;48.59;94770.06;6155313;28;102837;-51
2022/08/13 04:09:29;;;;;;;12.77;11.77;;;;;;;24.84;48.90;94774.94;6153349;28;103043;-51
2022/08/13 04:12:34;;;;;;;12.73;11.70;;;;;;;24.99;48.74;94768.19;6154658;28;103030;-51
2022/08/13 04:15:42;;;;;;;12.73;11.60;;;;;;;25.15;48.36;94776.38;6160140;28;103035;-51
2022/08/13 04:18:46;;;;;;;30.10;27.60;;;;;;;25.46;48.02;94771.31;6162554;28;103177;-52
2022/08/13 04:21:50;;;;;;;31.97;29.13;;;;;;;25.61;47.47;94776.00;6152640;28;104529;-51
2022/08/13 04:24:53;;;;;;;26.93;24.93;;;;;;;25.71;47.42;94782.03;6162292;28;103372;-52
2022/08/13 04:27:58;;;;;;;29.60;27.00;;;;;;;25.87;46.50;94781.03;6161733;28;104050;-53
2022/08/13 04:31:07;;;;;;;16.97;15.47;;;;;;;25.80;47.10;94782.72;6161881;28;104293;-52
2022/08/13 04:34:13;;;;;;;14.77;13.67;;;;;;;25.58;47.88;94776.69;6151994;28;103214;-51
2022/08/13 04:37:36;;;;;;;11.60;10.80;;;;;;;25.17;49.34;94777.59;6156380;28;104871;-51
2022/08/13 04:40:56;;;;;;;12.73;10.70;;;;;;;25.14;49.23;94770.22;6156598;28;103041;-51
2022/08/13 04:44:00;;;;;;;9.70;9.00;;;;;;;24.79;50.33;94762.53;6150617;28;103367;-51
2022/08/13 04:47:08;;;;;;;9.97;9.07;;;;;;;24.57;50.94;94767.47;6161594;28;103232;-52
2022/08/13 04:50:12;;;;;;;8.90;8.20;;;;;;;24.43;49.61;94765.03;6159425;28;102808;-51
2022/08/13 04:53:23;;;;;;;9.80;9.10;;;;;;;24.38;51.28;94771.38;6159571;28;104025;-53
2022/08/13 04:56:26;;;;;;;9.90;9.17;;;;;;;24.54;49.22;94768.91;6151686;28;104073;-52
2022/08/13 04:59:29;;;;;;;10.10;9.10;;;;;;;24.65;50.64;94771.94;6161236;28;102977;-55
2022/08/13 05:02:40;;;;;;;9.43;8.83;;;;;;;24.91;50.28;94772.53;6161507;28;103195;-54
2022/08/13 05:05:47;;;;;;;10.00;9.30;;;;;;;25.48;49.06;94763.72;6157973;28;103513;-55
2022/08/13 05:08:52;;;;;;;9.10;8.40;;;;;;;25.77;49.21;94772.66;6156147;28;105040;-54
2022/08/13 05:11:58;;;;;;;9.33;8.63;;;;;;;25.97;47.79;94775.22;6161817;28;102687;-53
2022/08/13 05:15:08;;;;;;;9.00;8.30;;;;;;;26.02;48.06;94768.84;6161458;28;104980;-54
2022/08/13 05:18:35;;;;;;;8.13;7.63;;;;;;;26.15;48.36;94770.41;6150498;28;103166;-54
2022/08/13 05:21:43;;;;;;;10.20;9.40;;;;;;;26.13;47.66;94772.66;6161705;28;104069;-53
2022/08/13 05:25:01;;;;;;;9.53;8.63;;;;;;;26.09;47.34;94776.34;6161666;28;103369;-53
2022/08/13 05:28:25;;;;;;;12.20;8.87;;;;;;;26.02;47.47;94768.84;6159028;28;105232;-54
2022/08/13 05:31:33;;;;;;;9.50;8.60;;;;;;;25.88;47.90;94774.56;6155217;28;104032;-53
2022/08/13 05:34:59;;;;;;;9.50;8.60;;;;;;;25.86;47.41;94778.69;6165993;28;104625;-53
2022/08/13 05:38:04;;;;;;;12.80;9.57;;;;;;;25.71;48.29;94772.13;6167308;28;102994;-53
2022/08/13 05:41:23;;;;;;;19.10;8.37;;;;;;;25.63;49.13;94778.34;6172111;28;103266;-53
2022/08/13 05:44:32;;;;;;;29.20;10.43;;;;;;;25.65;48.74;94776.91;6186232;28;103381;-52
2022/08/13 05:47:37;;;;;;;13.80;8.50;;;;;;;25.65;48.42;94776.91;6184743;28;104062;-53
2022/08/13 05:50:43;;;;;;;14.27;8.10;;;;;;;25.79;48.09;94779.25;6185782;28;103961;-53
2022/08/13 05:53:47;;;;;;;10.53;8.27;;;;;;;25.95;47.72;94782.81;6175612;28;103325;-52
2022/08/13 05:57:10;;;;;;;15.20;8.90;;;;;;;26.10;48.13;94780.59;6186056;28;102793;-52
2022/08/13 06:03:35;;;;;;;14.83;8.83;;;;;;;26.18;47.56;94782.34;6176011;28;103602;-52
2022/08/13 06:07:00;;;;;;;8.80;8.00;;;;;;;26.11;47.40;94774.13;6185830;28;105202;-53
2022/08/13 06:10:04;;;;;;;15.83;9.53;;;;;;;26.05;47.74;94778.94;6185544;28;103579;-52
2022/08/13 06:13:13;;;;;;;10.47;8.97;;;;;;;25.90;47.72;94775.00;6186035;28;103591;-51
2022/08/13 06:16:20;;;;;;;12.13;9.43;;;;;;;25.78;48.56;94775.00;6173766;28;103168;-53
2022/08/13 06:19:44;;;;;;;10.47;9.47;;;;;;;25.71;48.34;94779.34;6185596;28;102965;-52
2022/08/13 06:22:56;;;;;;;14.10;10.00;;;;;;;25.63;49.14;94770.31;6185699;28;103056;-53
2022/08/13 06:26:02;;;;;;;9.97;8.97;;;;;;;25.35;49.04;94776.31;6175130;28;104166;-51
2022/08/13 06:29:07;;;;;;;11.77;10.03;;;;;;;25.32;49.13;94778.84;6185141;28;102990;-52
2022/08/13 06:32:16;;;;;;;9.40;8.80;;;;;;;25.46;49.41;94774.00;6169859;28;103134;-53
2022/08/13 06:35:40;;;;;;;9.90;9.10;;;;;;;25.63;48.80;94773.00;6136042;28;104555;-55
2022/08/13 06:38:52;;;;;;;19.33;17.57;;;;;;;25.63;49.02;94771.09;6124432;28;104126;-53
2022/08/13 06:41:59;;;;;;;14.23;12.83;;;;;;;25.67;48.77;94780.03;6136107;28;103179;-53
2022/08/13 06:45:06;;;;;;;14.10;12.20;;;;;;;25.67;49.13;94771.97;6135898;28;104010;-54
2022/08/13 06:48:10;;;;;;;13.07;11.70;;;;;;;25.73;49.06;94767.19;6130678;28;104484;-52
2022/08/13 06:51:20;;;;;;;12.53;11.40;;;;;;;25.84;48.67;94773.66;6132131;28;104358;-54
2022/08/13 06:54:25;;;;;;;13.10;11.60;;;;;;;25.99;47.77;94772.97;6135172;28;103579;-53
2022/08/13 06:57:34;;;;;;;14.13;11.63;;;;;;;26.12;47.28;94773.78;6135511;28;103384;-53
2022/08/13 07:00:58;;;;;;;13.60;10.57;;;;;;;26.29;46.96;94775.41;6124541;28;104940;-53
2022/08/13 07:04:01;;;;;;;15.33;10.60;;;;;;;26.36;46.75;94772.94;6135658;28;102981;-52
2022/08/13 07:07:06;;;;;;;10.97;9.90;;;;;;;26.18;46.46;94783.13;6146890;28;103190;-54
2022/08/13 07:10:11;;;;;;;11.97;9.17;;;;;;;26.18;46.81;94782.34;6159674;28;103067;-53
2022/08/13 07:13:14;;;;;;;10.67;8.63;;;;;;;26.28;46.64;94782.69;6150581;28;103998;-53
2022/08/13 07:16:39;;;;;;;15.50;13.90;;;;;;;26.32;46.21;94784.69;6183054;28;103401;-53
2022/08/13 07:19:42;;;;;;;11.70;10.70;;;;;;;26.30;47.01;94786.94;6184525;28;103230;-54
2022/08/13 07:23:05;;;;;;;13.53;12.33;;;;;;;26.44;47.01;94780.06;6151661;28;102979;-52
2022/08/13 07:26:32;;;;;;;11.47;10.60;;;;;;;26.56;46.73;94784.63;6159028;28;102744;-52
2022/08/13 07:29:49;;;;;;;11.20;10.10;;;;;;;26.56;46.60;94788.09;6153751;28;104110;-54
2022/08/13 07:32:57;;;;;;;10.63;9.83;;;;;;;26.63;46.08;94784.03;6159639;28;104331;-53
2022/08/13 07:36:04;;;;;;;11.70;10.50;;;;;;;26.67;46.16;94788.41;6148058;28;104081;-53
2022/08/13 07:39:13;;;;;;;17.63;11.13;;;;;;;26.51;47.52;94787.53;6160234;28;104230;-54
2022/08/13 07:42:21;;;;;;;12.80;11.90;;;;;;;26.68;47.08;94789.97;6183782;28;102973;-53
2022/08/13 07:45:34;;;;;;;12.97;11.97;;;;;;;26.74;47.23;94780.56;6159920;28;102984;-54
2022/08/13 07:48:58;;;;;;;12.87;11.50;;;;;;;26.84;46.50;94788.13;6159674;28;105482;-55
2022/08/13 07:52:09;;;;;;;12.30;11.03;;;;;;;26.81;47.43;94788.03;6161567;28;103073;-53
2022/08/13 07:55:12;;;;;;;12.90;11.70;;;;;;;26.73;47.77;94781.69;6163198;28;104106;-52
2022/08/13 07:58:37;;;;;;;13.40;12.10;;;;;;;26.73;47.13;94781.69;6169012;28;105617;-54
2022/08/13 08:01:46;;;;;;;11.67;10.67;;;;;;;26.68;46.93;94781.91;6163887;28;102992;-53
2022/08/13 08:05:13;;;;;;;19.73;18.00;;;;;;;26.52;47.79;94778.34;6157808;28;105033;-54
2022/08/13 09:19:56;;;;;;;10.87;9.97;;;;;;;25.88;46.74;94749.66;6266978;22;103773;-55
2022/08/13 09:23:08;;;;;;;11.10;10.20;;;;;;;26.13;46.15;94751.19;6241394;27;105229;-56
2022/08/13 09:26:30;;;;;;;11.07;10.17;;;;;;;26.26;46.05;94755.41;6234398;27;102905;-55
2022/08/13 09:29:36;;;;;;;11.50;10.60;;;;;;;26.22;46.15;94745.72;6241685;27;103139;-56
2022/08/13 09:32:39;;;;;;;11.10;10.00;;;;;;;26.42;45.50;94749.34;6235557;27;104354;-55
2022/08/13 09:35:46;;;;;;;12.27;11.17;;;;;;;26.43;45.54;94745.53;6256391;27;103352;-55
2022/08/13 09:38:51;;;;;;;13.67;12.33;;;;;;;26.43;45.70;94749.00;6262870;27;103985;-56
2022/08/13 09:41:56;;;;;;;13.23;12.13;;;;;;;26.57;45.73;94743.25;6268688;27;103948;-55
2022/08/13 09:45:00;;;;;;;12.60;11.30;;;;;;;26.64;45.48;94756.88;6245394;27;104064;-55
2022/08/13 09:48:05;;;;;;;12.17;11.00;;;;;;;26.63;45.45;94755.31;6253719;27;103074;-55
2022/08/13 09:51:34;;;;;;;11.50;10.60;;;;;;;26.71;44.68;94740.97;6254083;27;103022;-57
2022/08/13 09:54:57;;;;;;;13.10;9.80;;;;;;;26.74;44.48;94744.88;6240745;27;103445;-56
2022/08/13 09:58:01;;;;;;;11.57;10.60;;;;;;;26.86;44.65;94739.44;6255361;27;103021;-61
2022/08/13 10:01:04;;;;;;;10.67;9.83;;;;;;;27.03;44.42;94743.72;6255002;27;103633;-63
2022/08/13 10:04:18;;;;;;;12.60;9.13;;;;;;;27.06;43.70;94745.72;6266415;27;103186;-63
2022/08/13 10:07:22;;;;;;;9.97;9.27;;;;;;;27.15;43.78;94754.38;6250578;27;105727;-62
2022/08/13 10:10:27;;;;;;;11.20;10.20;;;;;;;27.20;43.11;94740.69;6254478;27;103405;-62
2022/08/13 10:13:34;;;;;;;11.40;10.20;;;;;;;27.24;43.11;94738.13;6255589;27;103833;-62
2022/08/13 10:16:53;;;;;;;10.73;9.93;;;;;;;27.19;43.24;94733.75;6252600;27;103153;-64
2022/08/13 10:19:57;;;;;;;12.27;11.37;;;;;;;27.08;43.65;94735.41;6234367;27;102948;-60
2022/08/13 10:23:04;;;;;;;11.27;10.17;;;;;;;27.14;43.03;94728.66;6238042;28;104055;-61
2022/08/13 10:26:07;;;;;;;10.13;9.27;;;;;;;27.19;43.30;94728.38;6236090;27;103236;-60
2022/08/13 10:29:11;;;;;;;10.60;9.70;;;;;;;27.21;42.98;94722.66;6229991;27;103832;-60
2022/08/13 10:32:34;;;;;;;12.17;11.07;;;;;;;27.24;43.19;94727.38;6238724;28;102789;-60
2022/08/13 10:35:39;;;;;;;11.03;10.03;;;;;;;27.25;43.40;94724.34;6237646;28;103332;-60
2022/08/13 10:38:47;;;;;;;11.57;10.67;;;;;;;27.25;43.53;94729.72;6225911;28;104530;-60
2022/08/13 10:41:55;;;;;;;11.37;10.47;;;;;;;27.18;44.44;94732.19;6227933;28;104150;-60
2022/08/13 10:45:06;;;;;;;12.20;11.20;;;;;;;27.06;44.84;94727.72;6238622;27;104093;-60
2022/08/13 10:48:12;;;;;;;11.13;10.33;;;;;;;27.02;44.55;94726.81;6222882;27;103464;-60
2022/08/13 10:51:16;;;;;;;10.30;9.60;;;;;;;26.92;45.58;94721.19;6228019;28;103178;-61
2022/08/13 10:54:32;;;;;;;10.97;10.07;;;;;;;26.78;45.41;94717.00;6221020;27;105053;-60
2022/08/13 10:57:40;;;;;;;11.03;9.97;;;;;;;26.78;45.41;94724.28;6219430;28;103246;-58
2022/08/13 11:01:04;;;;;;;10.77;9.83;;;;;;;26.61;45.94;94730.69;6206766;28;105534;-58
2022/08/13 11:04:14;;;;;;;9.00;8.20;;;;;;;26.57;45.24;94735.97;6205307;28;104360;-60
2022/08/13 11:07:18;;;;;;;10.50;9.60;;;;;;;26.64;45.55;94729.25;6206814;28;103015;-62
2022/08/13 11:10:25;;;;;;;9.43;8.60;;;;;;;26.73;44.97;94733.38;6217848;28;103431;-59
2022/08/13 11:13:36;;;;;;;10.17;9.37;;;;;;;26.74;45.36;94726.09;6221255;28;103303;-57
2022/08/13 11:17:04;;;;;;;9.27;8.47;;;;;;;26.90;44.98;94724.22;6205822;28;104275;-57
2022/08/13 11:20:29;;;;;;;9.57;8.87;;;;;;;26.91;44.71;94712.34;6212480;28;103199;-59
2022/08/13 11:23:33;;;;;;;8.73;8.07;;;;;;;27.00;44.95;94712.19;6235894;27;103021;-59
2022/08/13 11:26:39;;;;;;;9.17;8.40;;;;;;;27.11;44.30;94710.53;6225228;27;103069;-58
2022/08/13 11:29:44;;;;;;;8.87;8.17;;;;;;;27.00;44.14;94704.13;6235571;27;103286;-60
2022/08/13 11:32:47;;;;;;;8.77;8.07;;;;;;;27.06;44.70;94698.16;6209054;27;103285;-58
2022/08/13 11:35:51;;;;;;;9.90;9.30;;;;;;;27.13;45.84;94702.91;6209433;28;102994;-58
2022/08/13 11:38:56;;;;;;;9.40;8.70;;;;;;;27.25;45.12;94700.16;6199855;27;103335;-57
2022/08/13 11:42:01;;;;;;;8.73;8.00;;;;;;;27.20;45.18;94705.75;6223615;28;104056;-59
2022/08/13 11:45:06;;;;;;;9.50;8.70;;;;;;;27.22;44.28;94706.22;6234626;27;102824;-58
2022/08/13 11:48:09;;;;;;;9.40;8.43;;;;;;;27.18;44.23;94710.72;6228974;27;103024;-59
2022/08/13 11:51:13;;;;;;;9.30;8.30;;;;;;;26.86;44.60;94712.59;6218143;27;103328;-58
2022/08/13 11:54:19;;;;;;;8.77;8.17;;;;;;;26.83;45.09;94711.38;6233798;27;103346;-58
2022/08/13 11:57:36;;;;;;;9.57;8.87;;;;;;;26.62;45.52;94710.78;6215701;28;102879;-59
2022/08/13 12:00:48;;;;;;;10.90;9.93;;;;;;;26.55;46.00;94711.38;6198421;28;104051;-60
2022/08/13 12:03:53;;;;;;;10.73;10.03;;;;;;;26.56;46.36;94715.63;6220849;27;103246;-58
2022/08/13 12:07:16;;;;;;;11.00;10.00;;;;;;;26.47;45.82;94715.00;6219606;28;103559;-58
2022/08/13 12:10:20;;;;;;;11.67;10.87;;;;;;;26.56;45.38;94712.16;6217748;28;103032;-60
2022/08/13 12:13:44;;;;;;;10.47;9.73;;;;;;;26.69;45.28;94716.38;6213243;28;104978;-61
2022/08/13 12:16:56;;;;;;;11.13;10.33;;;;;;;26.82;45.76;94717.88;6218861;28;105340;-61
2022/08/13 12:19:59;;;;;;;11.10;10.40;;;;;;;26.86;45.58;94724.09;6232444;27;103554;-63
2022/08/13 12:23:03;;;;;;;11.73;10.70;;;;;;;26.96;45.80;94716.69;6221834;28;102969;-63
2022/08/13 12:26:06;;;;;;;12.40;11.40;;;;;;;26.97;46.46;94712.88;6213914;27;102944;-63
2022/08/13 12:29:15;;;;;;;10.90;10.17;;;;;;;26.98;46.73;94715.22;6211538;27;103446;-63
2022/08/13 12:32:20;;;;;;;11.60;10.57;;;;;;;27.07;46.85;94713.16;6219555;28;103769;-62
2022/08/13 12:35:24;;;;;;;12.50;11.30;;;;;;;27.19;46.03;94712.28;6198386;28;103218;-62
2022/08/13 12:38:48;;;;;;;11.50;10.57;;;;;;;27.18;47.44;94714.19;6209144;28;104896;-63
2022/08/13 12:42:02;;;;;;;20.70;18.93;;;;;;;27.14;47.52;94721.38;6206113;28;102941;-62
2022/08/13 12:45:09;;;;;;;12.23;11.30;;;;;;;26.79;48.30;94721.25;6208727;28;103225;-61
2022/08/13 12:48:32;;;;;;;12.13;11.30;;;;;;;26.77;47.74;94723.50;6231826;28;103305;-61
2022/08/13 12:51:35;;;;;;;12.10;11.30;;;;;;;26.64;47.67;94730.03;6213678;28;103058;-61
2022/08/13 12:54:57;;;;;;;11.83;10.93;;;;;;;26.35;47.77;94733.81;6223284;28;102870;-60
2022/08/13 12:58:16;;;;;;;11.43;10.27;;;;;;;26.19;47.14;94739.09;6217378;27;103365;-62
2022/08/13 13:01:27;;;;;;;12.27;11.37;;;;;;;26.16;47.07;94741.69;6217941;27;103359;-60
2022/08/13 13:04:35;;;;;;;12.67;11.63;;;;;;;26.16;47.29;94747.06;6215850;28;103912;-60
2022/08/13 13:07:38;;;;;;;13.30;12.30;;;;;;;26.31;46.89;94751.72;6219349;28;103658;-61
2022/08/13 13:11:03;;;;;;;13.40;12.40;;;;;;;26.49;46.81;94753.00;6214094;27;103280;-61
2022/08/13 13:14:14;;;;;;;12.90;12.00;;;;;;;26.46;47.91;94764.41;6223354;28;103123;-60
2022/08/13 13:17:41;;;;;;;14.67;13.43;;;;;;;26.29;47.70;94772.72;6217554;28;102880;-59
2022/08/13 13:21:04;;;;;;;13.10;12.03;;;;;;;26.52;47.22;94781.81;6202819;28;104322;-60
2022/08/13 13:24:13;;;;;;;12.77;11.90;;;;;;;26.61;47.09;94784.38;6218363;28;103932;-61
2022/08/13 13:27:21;;;;;;;13.10;11.63;;;;;;;26.71;47.05;94783.13;6227131;28;104058;-61
2022/08/13 13:30:45;;;;;;;13.50;12.27;;;;;;;26.73;47.40;94791.66;6203186;28;103909;-60
2022/08/13 13:34:06;;;;;;;13.13;12.07;;;;;;;26.83;47.35;94788.47;6223374;28;103222;-62
2022/08/13 13:37:09;;;;;;;13.80;12.70;;;;;;;26.91;45.92;94787.53;6216106;28;103692;-60
2022/08/13 13:40:13;;;;;;;12.27;11.37;;;;;;;26.92;46.66;94793.69;6214982;28;104172;-61
2022/08/13 13:43:18;;;;;;;12.50;11.70;;;;;;;26.89;47.08;94786.34;6195684;28;103009;-61
2022/08/13 13:46:28;;;;;;;12.97;11.77;;;;;;;26.68;47.56;94779.22;6212003;28;103985;-61
2022/08/13 13:49:32;;;;;;;12.80;11.80;;;;;;;26.61;48.24;94783.59;6216569;28;103940;-61
2022/08/13 13:52:35;;;;;;;12.90;11.90;;;;;;;26.45;48.25;94772.81;6217765;28;104266;-61
2022/08/13 13:55:39;;;;;;;13.57;12.47;;;;;;;26.35;48.43;94768.69;6203543;28;105012;-60
2022/08/13 13:58:42;;;;;;;13.13;11.97;;;;;;;26.37;48.83;94769.13;6218745;28;103887;-60
2022/08/13 14:02:02;;;;;;;13.43;12.43;;;;;;;26.02;50.15;94774.22;6226171;28;104016;-58
2022/08/13 14:05:09;;;;;;;12.87;11.90;;;;;;;25.80;50.14;94778.13;6215564;28;103968;-60
2022/08/13 14:08:21;;;;;;;14.70;13.33;;;;;;;25.91;50.74;94781.94;6227654;28;102805;-61
2022/08/13 14:11:24;;;;;;;13.93;12.90;;;;;;;26.23;49.74;94766.06;6213575;27;103543;-61
2022/08/13 14:14:31;;;;;;;20.13;18.43;;;;;;;26.32;50.21;94765.91;6211369;28;102929;-60
2022/08/13 14:17:34;;;;;;;14.33;13.20;;;;;;;26.22;51.06;94757.22;6224273;27;103736;-62
2022/08/13 14:20:40;;;;;;;14.63;13.20;;;;;;;26.27;50.83;94756.19;6231284;27;103750;-62
2022/08/13 14:23:44;;;;;;;13.27;12.27;;;;;;;26.02;51.54;94750.09;6236928;28;104115;-62
2022/08/13 14:26:49;;;;;;;13.20;12.00;;;;;;;26.29;50.70;94745.91;6220136;27;103437;-63
2022/08/13 14:29:53;;;;;;;12.97;11.83;;;;;;;26.67;49.42;94739.31;6223452;28;103430;-62
2022/08/13 14:32:57;;;;;;;13.93;12.23;;;;;;;26.82;50.02;94735.88;6220160;27;104285;-61
2022/08/13 14:36:09;;;;;;;13.83;12.57;;;;;;;26.94;48.97;94729.69;6229297;27;103206;-64
2022/08/13 14:39:12;;;;;;;13.00;11.80;;;;;;;26.86;48.84;94721.41;6203501;28;105304;-63
2022/08/13 14:42:26;;;;;;;13.00;11.90;;;;;;;26.80;49.42;94717.44;6231921;28;104248;-64
2022/08/13 14:45:53;;;;;;;10.27;8.90;;;;;;;26.64;49.84;94713.94;6233275;28;104895;-61
2022/08/13 14:49:03;;;;;;;10.00;9.10;;;;;;;26.38;50.69;94716.25;6226932;28;103040;-63
2022/08/13 14:52:10;;;;;;;8.23;7.53;;;;;;;25.82;51.22;94708.09;6199511;28;104108;-62
2022/08/13 14:55:14;;;;;;;8.33;7.60;;;;;;;25.20;52.13;94712.66;6231925;27;103298;-63
2022/08/13 14:58:18;;;;;;;20.53;17.97;;;;;;;25.10;53.47;94702.38;6235890;27;103789;-63
2022/08/13 15:01:36;;;;;;;12.30;10.90;;;;;;;25.24;52.63;94692.13;6212606;27;103104;-63
2022/08/13 15:04:45;;;;;;;10.30;9.30;;;;;;;25.82;51.38;94684.75;6210714;28;103100;-58
2022/08/13 15:08:02;;;;;;;10.20;9.23;;;;;;;26.19;50.82;94680.09;6228212;28;102964;-63
2022/08/13 15:11:19;;;;;;;10.10;9.20;;;;;;;26.42;49.95;94672.31;6222129;28;103930;-63
2022/08/13 15:14:23;;;;;;;15.50;14.20;;;;;;;26.58;50.77;94667.75;6207672;28;103154;-65
2022/08/13 15:17:28;;;;;;;13.73;11.87;;;;;;;26.71;49.70;94667.69;6217371;28;104381;-66
2022/08/13 15:20:39;;;;;;;12.33;11.23;;;;;;;26.84;49.96;94658.44;6225822;27;103151;-64
2022/08/13 15:24:04;;;;;;;14.23;13.03;;;;;;;26.93;49.42;94652.94;6220143;28;104064;-65
2022/08/13 15:27:08;;;;;;;15.47;14.20;;;;;;;27.03;49.73;94657.75;6206475;27;104122;-63
2022/08/13 15:30:15;;;;;;;20.30;18.40;;;;;;;27.02;49.89;94653.53;6226947;28;104102;-62
2022/08/13 15:33:22;;;;;;;13.03;10.90;;;;;;;26.91;50.04;94652.50;6226986;28;103331;-67
2022/08/13 15:36:25;;;;;;;16.80;15.50;;;;;;;26.73;50.11;94649.38;6212680;28;103215;-62
2022/08/13 15:39:50;;;;;;;12.90;11.90;;;;;;;26.46;51.04;94648.25;6211098;28;105013;-66
2022/08/13 15:42:54;;;;;;;11.13;10.13;;;;;;;26.15;51.26;94638.97;6212449;28;104063;-66
2022/08/13 15:45:59;;;;;;;10.77;9.70;;;;;;;26.09;51.44;94637.69;6221433;27;102982;-62
2022/08/13 15:49:03;;;;;;;10.30;9.10;;;;;;;26.04;51.70;94631.75;6216199;28;103265;-67
2022/08/13 15:52:08;;;;;;;8.93;8.23;;;;;;;25.88;51.96;94639.75;6210903;28;104048;-68
2022/08/13 15:55:17;;;;;;;9.30;8.60;;;;;;;26.03;51.91;94630.97;6218468;28;104191;-65
2022/08/13 15:58:20;;;;;;;8.50;7.90;;;;;;;26.03;51.39;94640.91;6208712;28;103047;-65
2022/08/13 16:01:35;;;;;;;8.13;7.53;;;;;;;26.01;50.66;94643.16;6225387;28;104126;-63
2022/08/13 16:04:49;;;;;;;10.40;9.00;;;;;;;26.12;51.02;94634.31;6231542;28;104229;-62